福岡空港の過去48時間の天気

福岡空港 (Fukuoka)

現在時刻: 2/23 21:48 JST (2/23 12:48 UTC) 以下の時間は現地時間です。

過去48時間のMETAR気象情報
時間 風向 風速(m/s) 視程 気温(℃) 湿度(%) 気圧(hPa) 天気現象
23 21:30 南南東 2 10km以上 5 65 1026
23 21:00 東南東 2 10km以上 7 57 1025
23 20:30 南南東 2 10km以上 6 57 1025
23 20:00 2 9,000m 8 53 1025
23 19:30 不定 2 9,000m 8 53 1025
23 19:00 北北東 2 8,000m 9 43 1024
23 18:30 北北西 2 10km以上 10 37 1024
23 18:00 3 10km以上 10 40 1024
23 17:30 北西 2 9,000m 10 40 1024
23 17:00 北西 3 9,000m 10 43 1023
23 16:30 西北西 3 8,000m 11 43 1024
23 16:00 北西 4 8,000m 11 43 1024
23 15:30 西北西 4 8,000m 12 44 1024
23 15:00 北西 4 9,000m 11 43 1023
23 14:30 西 5 9,000m 12 44 1023
23 14:00 西北西 5 9,000m 12 44 1023
23 13:30 北北西 6 10km以上 11 47 1023
23 13:00 北西 5 10km以上 11 50 1024
23 12:30 北西 6 10km以上 12 50 1024
23 12:00 北西 5 10km以上 11 47 1024
23 11:30 西北西 5 10km以上 10 50 1024
23 11:00 西北西 5 10km以上 10 46 1024
23 10:48 西 5 10km以上 9 50 1024
23 10:30 南南西 2 10km以上 9 50 1024
23 10:00 不定 2 10km以上 8 53 1024
23 09:30 3 10km以上 7 57 1024
23 09:00 南南東 4 10km以上 6 65 1024
23 08:30 南南東 3 10km以上 4 75 1024
23 08:00 4 10km以上 3 75 1023
23 07:30 4 10km以上 2 81 1023
23 07:00 2 10km以上 0 80 1023
23 06:30 南南東 3 10km以上 1 80 1023
23 06:00 南東 3 10km以上 1 80 1022
23 05:30 南東 2 10km以上 1 80 1022
23 05:00 南南東 3 10km以上 0 86 1022
23 04:30 南東 2 10km以上 1 80 1022
23 04:00 南東 2 10km以上 1 80 1022
23 03:30 南東 2 10km以上 1 86 1022
23 03:00 南東 2 10km以上 2 81 1022
23 02:30 南東 2 10km以上 3 81 1022
23 02:00 南東 2 10km以上 2 87 1022
23 01:30 南南東 2 10km以上 2 81 1022
23 01:00 南東 1 10km以上 3 81 1022
23 00:30 東南東 1 10km以上 3 81 1021
23 00:00 南東 1 10km以上 3 81 1022
22 23:30 不定 1 10km以上 4 75 1021
22 23:00 静穏 0 10km以上 4 75 1021
22 22:30 静穏 0 10km以上 5 70 1021
22 22:00 不定 2 10km以上 5 65 1021
22 21:30 北東 2 10km以上 6 61 1021
22 21:00 東北東 2 10km以上 6 61 1021
22 20:30 東北東 2 10km以上 6 61 1021
22 20:00 不定 2 10km以上 7 57 1021
22 19:30 北北東 3 10km以上 7 57 1020
22 19:00 北北東 3 10km以上 7 57 1021
22 18:30 5 10km以上 8 53 1020
22 18:00 4 10km以上 8 53 1019
22 17:30 4 10km以上 8 53 1019
22 17:00 北北西 5 10km以上 8 53 1019
22 16:30 北北西 5 10km以上 9 50 1019
22 16:00 北北西 6 10km以上 9 50 1019
22 15:30 北北西 6 10km以上 9 50 1019
22 15:00 北北西 6 10km以上 10 46 1019
22 14:30 6 10km以上 10 46 1019
22 09:30 2 10km以上 8 49 1022
22 09:00 2 10km以上 7 57 1021
22 08:30 南南東 2 10km以上 6 70 1021
22 08:00 南南東 2 10km以上 5 75 1021
22 07:30 南東 2 10km以上 4 81 1020
22 07:00 東南東 2 10km以上 4 75 1020
22 06:30 南東 2 10km以上 4 75 1021
22 06:00 南南東 2 10km以上 4 75 1021
22 05:30 南南東 2 10km以上 5 75 1021
22 05:00 南南東 2 10km以上 4 81 1020
22 04:30 南東 2 10km以上 4 81 1020
22 04:00 南東 2 10km以上 5 75 1020
22 03:30 南南東 2 10km以上 4 75 1021
22 03:00 南東 2 10km以上 4 81 1021
22 02:30 南南東 2 10km以上 4 75 1021
22 02:00 東北東 1 10km以上 3 75 1021
22 01:30 北東 1 10km以上 6 65 1021
22 01:00 北東 2 10km以上 6 65 1021
21 23:30 北北東 2 10km以上 6 65 1020
21 22:30 2 10km以上 7 61 1020
21 22:00 3 10km以上 8 61 1020
RJFF 231230Z 15004KT 9999 FEW040 05/M01 Q1026 RMK 1CU040 A3030
RJFF 231200Z 12004KT 080V150 9999 FEW040 07/M01 Q1025 RMK 1CU040 A3029
RJFF 231130Z 15003KT 090V170 9999 FEW040 06/M02 Q1025 RMK 1CU040 A3028
RJFF 231100Z 10004KT 070V130 9000 FEW040 08/M01 Q1025 RMK 1CU040 A3028
RJFF 231030Z VRB03KT 9000 FEW040 08/M01 Q1025 RMK 1CU040 A3027
RJFF 231000Z 02003KT 330V090 8000 FEW040 09/M03 Q1024 RMK 1CU040 A3026
RJFF 230930Z 33003KT 320V050 9999 FEW040 10/M04 Q1024 RMK 1CU040 A3025
RJFF 230900Z 35005KT CAVOK 10/M03 Q1024 RMK A3025
RJFF 230830Z 32003KT 240V010 9000 NSC 10/M03 Q1024 RMK A3024
RJFF 230800Z 31005KT 280V350 9000 NSC 10/M02 Q1023 RMK A3023
RJFF 230730Z 30006KT 270V340 8000 FEW030 11/M01 Q1024 RMK 1CU030 A3024
RJFF 230700Z 31008KT 250V340 8000 FEW030 11/M01 Q1024 RMK 1CU030 A3024
RJFF 230630Z 30008KT 250V330 8000 FEW030 12/M00 Q1024 RMK 1CU030 A3024
RJFF 230600Z 31008KT 280V350 9000 FEW030 11/M01 Q1023 RMK 1CU030 A3023
RJFF 230530Z 28010KT 9000 FEW030 12/M00 Q1023 RMK 1CU030 A3023
RJFF 230500Z 29010KT 260V330 9000 FEW030 12/00 Q1023 RMK 1CU030 A3023
RJFF 230430Z 34012KT 9999 FEW030 11/00 Q1023 RMK 1CU030 A3023
RJFF 230400Z 32010KT 290V350 9999 FEW030 11/01 Q1024 RMK 1CU030 A3024
RJFF 230330Z 31011KT 260V340 9999 FEW030 SCT045 12/02 Q1024 RMK 1CU030 4CU045 A3024
RJFF 230300Z 31010KT 250V330 9999 FEW035 SCT045 11/00 Q1024 RMK 1CU035 4CU045 A3025
RJFF 230230Z 30009KT 260V330 9999 FEW035 SCT040 10/00 Q1024 RMK 1CU035 4CU040 A3025
RJFF 230200Z 30010KT 250V330 9999 FEW035 SCT040 10/M01 Q1024 RMK 1CU035 4CU040 A3025
RJFF 230148Z 28010KT 250V310 9999 FEW035 SCT040 09/M01 Q1024 RMK 1CU035 4CU040 A3026
RJFF 230130Z 20004KT 150V290 9999 FEW035 SCT040 09/M01 Q1024 RMK 1CU035 3CU040 A3025
RJFF 230100Z VRB03KT 9999 FEW035 08/M01 Q1024 RMK 1CU035 A3024
RJFF 230030Z 19005KT 150V210 9999 FEW035 07/M01 Q1024 RMK 1CU035 A3024
RJFF 230000Z 16008KT 9999 FEW035 06/00 Q1024 RMK 1CU035 A3024
RJFF 222330Z 16006KT 9999 FEW035 04/M00 Q1024 RMK 1CU035 A3024
RJFF 222300Z 17007KT 9999 FEW030 03/M01 Q1023 RMK 1CU030 A3023
RJFF 222230Z 17007KT 9999 FEW030 02/M01 Q1023 RMK 1CU030 A3023
RJFF 222200Z 17004KT 9999 FEW040 00/M03 Q1023 RMK 1CU040 A3022
RJFF 222130Z 15005KT 9999 FEW030 01/M02 Q1023 RMK 1CU030 A3021
RJFF 222100Z 14005KT CAVOK 01/M02 Q1022 RMK A3020
RJFF 222030Z AUTO 14004KT 9999 NCD 01/M02 Q1022 RMK A3021
RJFF 222000Z AUTO 15006KT 9999 NCD 00/M02 Q1022 RMK A3020
RJFF 221930Z AUTO 14004KT 9999 NCD 01/M02 Q1022 RMK A3020
RJFF 221900Z AUTO 14004KT 9999 NCD 01/M02 Q1022 RMK A3019
RJFF 221830Z AUTO 14003KT 9999 NCD 01/M01 Q1022 RMK A3020
RJFF 221800Z AUTO 13003KT 9999 NCD 02/M01 Q1022 RMK A3020
RJFF 221730Z AUTO 14003KT 9999 NCD 03/M00 Q1022 RMK A3020
RJFF 221700Z AUTO 14003KT 9999 NCD 02/M00 Q1022 RMK A3019
RJFF 221630Z AUTO 15003KT 9999 FEW047 02/M01 Q1022 RMK A3018
RJFF 221600Z AUTO 14002KT 9999 FEW044 03/M00 Q1022 RMK A3018
RJFF 221530Z AUTO 11002KT 9999 NSC 03/M00 Q1021 RMK A3018
RJFF 221500Z AUTO 14002KT 9999 FEW049 03/M00 Q1022 RMK A3018
RJFF 221430Z AUTO VRB02KT 9999 NCD 04/M00 Q1021 RMK A3017
RJFF 221400Z AUTO 00000KT 9999 NCD 04/M00 Q1021 RMK A3017
RJFF 221330Z 00000KT 9999 FEW040 SCT/// 05/M00 Q1021
RJFF 221300Z VRB03KT 9999 FEW040 BKN/// 05/M01 Q1021
RJFF 221230Z 05003KT 350V120 9999 FEW040 SCT/// 06/M01 Q1021
RJFF 221200Z 07003KT 020V140 9999 SCT040 06/M01 Q1021 RMK 3CU040 A3016
RJFF 221130Z 07004KT 040V150 9999 FEW035 SCT040 06/M01 Q1021 RMK 1CU035 4CU040 A3016
RJFF 221100Z VRB04KT 9999 FEW035 SCT040 07/M01 Q1021 RMK 1CU035 3CU040 A3015
RJFF 221030Z 02006KT 330V100 9999 FEW035 BKN040 07/M01 Q1020 RMK 1CU035 5CU040 A3015
RJFF 221000Z 02006KT 330V070 9999 FEW035 BKN040 BKN045 07/M01 Q1021 RMK 1CU035 5CU040 6SC045 A3015
RJFF 220930Z 01009KT 340V040 9999 FEW030 BKN040 BKN/// 08/M01 Q1020
RJFF 220900Z 35007KT 320V030 9999 FEW030 BKN/// 08/M01 Q1019
RJFF 220830Z 35008KT 300V020 9999 FEW040 BKN/// 08/M01 Q1019
RJFF 220800Z 34010KT 9999 FEW030 SCT160 BKN/// 08/M01 Q1019
RJFF 220730Z 33010KT 9999 FEW035 SCT160 BKN/// 09/M01 Q1019
RJFF 220700Z 33011KT 9999 FEW035 SCT160 BKN/// 09/M01 Q1019 RMK 1CU035 4AC160 A3010
RJFF 220630Z 33012KT 9999 FEW035 SCT160 BKN/// 09/M01 Q1019
RJFF 220600Z 33011KT 9999 FEW035 SCT160 BKN/// 10/M01 Q1019
RJFF 220530Z 35011KT 300V010 9999 FEW035 BKN/// 10/M01 Q1019
RJFF 220030Z 18003KT 130V230 9999 FEW030 BKN/// 08/M02 Q1022
RJFF 220000Z 17004KT 9999 FEW040 BKN/// 07/M01 Q1021
RJFF 212330Z 16004KT CAVOK 06/01 Q1021 RMK A3017
RJFF 212300Z 15003KT 9999 FEW040 BKN/// 05/01 Q1021
RJFF 212230Z 14003KT 100V170 9999 FEW040 BKN/// 04/01 Q1020
RJFF 212200Z 12003KT CAVOK 04/00 Q1020 RMK A3014
RJFF 212130Z 14003KT CAVOK 04/00 Q1021 RMK A3016
RJFF 212100Z 15004KT CAVOK 04/00 Q1021 RMK A3015
RJFF 212030Z AUTO 15003KT 100V190 9999 FEW045 OVC050 05/01 Q1021 RMK A3015
RJFF 212000Z AUTO 16003KT 9999 OVC048 04/01 Q1020 RMK A3015
RJFF 211930Z AUTO 13003KT 9999 SCT048 OVC050 04/01 Q1020 RMK A3014
RJFF 211900Z AUTO 14003KT 9999 FEW045 BKN050 05/01 Q1020 RMK A3014
RJFF 211830Z AUTO 16003KT 100V210 9999 FEW047 BKN050 OVC190 04/00 Q1021 RMK A3015
RJFF 211800Z AUTO 13003KT 9999 FEW048 SCT190 04/01 Q1021 RMK A3015
RJFF 211730Z AUTO 15003KT 9999 NSC 04/00 Q1021 RMK A3015
RJFF 211700Z AUTO 06002KT 9999 FEW044 BKN180 03/M01 Q1021 RMK A3016
RJFF 211630Z AUTO 05002KT 9999 NSC 06/00 Q1021 RMK A3016
RJFF 211600Z AUTO 04003KT 010V080 9999 NSC 06/00 Q1021 RMK A3015
RJFF 211430Z AUTO 02004KT 9999 NSC 06/00 Q1020 RMK A3013
RJFF 211330Z 01003KT CAVOK 07/00 Q1020 RMK A3013
RJFF 211300Z 01005KT 330V040 9999 FEW030 SCT050 08/01 Q1020 RMK 1CU030 3SC050 A3012